createdAt,value
2022-08-05T00:01:57.100Z,6.30
2022-08-05T00:04:09.715Z,6.53
2022-08-05T00:06:27.786Z,6.35
2022-08-05T00:08:36.182Z,6.20
2022-08-05T00:10:38.135Z,6.60
2022-08-05T00:12:56.243Z,7.00
2022-08-05T00:14:58.782Z,6.30
2022-08-05T00:17:19.548Z,6.40
2022-08-05T00:19:22.561Z,6.93
2022-08-05T00:21:25.206Z,6.07
2022-08-05T00:23:46.329Z,6.50
2022-08-05T00:25:53.989Z,6.10
2022-08-05T00:27:55.762Z,6.25
2022-08-05T00:29:58.255Z,7.35
2022-08-05T00:32:13.413Z,6.32
2022-08-05T00:34:56.345Z,7.78
2022-08-05T00:37:13.268Z,6.38
2022-08-05T00:39:00.326Z,6.85
2022-08-05T00:41:02.252Z,7.67
2022-08-05T00:43:07.408Z,7.43
2022-08-05T00:45:11.882Z,7.47
2022-08-05T00:47:16.402Z,7.68
2022-08-05T00:49:22.888Z,7.03
2022-08-05T00:51:50.426Z,7.40
2022-08-05T00:54:02.222Z,7.18
2022-08-05T00:56:05.526Z,7.00
2022-08-05T00:58:13.231Z,7.68
2022-08-05T01:00:16.889Z,7.70
2022-08-05T01:02:18.684Z,6.75
2022-08-05T01:04:26.727Z,7.32
2022-08-05T01:06:32.514Z,6.97
2022-08-05T01:08:43.245Z,7.30
2022-08-05T01:10:52.871Z,7.57
2022-08-05T01:13:05.327Z,6.65
2022-08-05T01:15:35.641Z,7.57
2022-08-05T01:17:43.963Z,7.40
2022-08-05T01:20:00.995Z,7.38
2022-08-05T01:22:23.858Z,7.88
2022-08-05T01:24:34.696Z,8.02
2022-08-05T01:26:56.348Z,7.40
2022-08-05T01:29:05.755Z,7.68
2022-08-05T01:31:11.521Z,8.00
2022-08-05T01:33:15.922Z,7.47
2022-08-05T01:35:51.919Z,7.95
2022-08-05T01:37:49.697Z,7.80
2022-08-05T01:39:54.823Z,7.80
2022-08-05T01:42:01.729Z,7.97
2022-08-05T01:46:07.211Z,8.07
2022-08-05T01:50:28.675Z,7.38
2022-08-05T01:52:32.486Z,8.05
2022-08-05T01:54:46.020Z,7.70
2022-08-05T01:58:29.945Z,8.30
2022-08-05T01:59:14.139Z,8.23
2022-08-05T02:01:25.382Z,7.55
2022-08-05T02:03:34.161Z,7.90
2022-08-05T02:05:38.336Z,7.90
2022-08-05T02:08:00.006Z,8.23
2022-08-05T02:10:04.362Z,7.80
2022-08-05T02:12:17.507Z,8.20
2022-08-05T02:14:27.622Z,8.05
2022-08-05T02:16:40.248Z,7.93
2022-08-05T02:18:49.096Z,8.60
2022-08-05T02:20:53.811Z,7.75
2022-08-05T02:23:03.279Z,8.23
2022-08-05T02:25:08.175Z,8.40
2022-08-05T02:27:10.896Z,8.20
2022-08-05T02:29:21.336Z,8.77
2022-08-05T02:31:34.954Z,7.68
2022-08-05T02:33:39.384Z,7.93
2022-08-05T02:35:49.882Z,8.35
2022-08-05T02:38:00.114Z,7.95
2022-08-05T02:40:02.965Z,8.07
2022-08-05T02:42:06.700Z,8.10
2022-08-05T02:44:13.548Z,7.90
2022-08-05T02:46:16.564Z,8.23
2022-08-05T02:50:21.937Z,7.82
2022-08-05T02:52:29.453Z,8.18
2022-08-05T02:54:36.465Z,8.07
2022-08-05T02:56:39.956Z,7.55
2022-08-05T02:58:51.582Z,8.27
2022-08-05T03:00:55.760Z,8.88
2022-08-05T03:02:58.287Z,9.25
2022-08-05T03:05:00.633Z,8.50
2022-08-05T03:07:02.529Z,8.70
2022-08-05T03:09:04.486Z,8.73
2022-08-05T03:11:54.886Z,8.68
2022-08-05T03:13:51.822Z,9.10
2022-08-05T03:16:01.089Z,9.77
2022-08-05T03:18:02.634Z,10.13
2022-08-05T03:20:06.066Z,10.75
2022-08-05T03:22:16.027Z,10.57
2022-08-05T03:24:30.262Z,9.43
2022-08-05T03:26:32.770Z,10.10
2022-08-05T03:28:34.849Z,9.93
2022-08-05T03:30:36.785Z,9.70
2022-08-05T03:32:40.120Z,10.13
2022-08-05T03:34:42.656Z,10.25
2022-08-05T03:36:52.579Z,9.27
2022-08-05T03:38:54.189Z,9.80
2022-08-05T03:40:57.773Z,10.20
2022-08-05T03:43:15.950Z,10.77
2022-08-05T03:45:23.285Z,10.55
2022-08-05T03:47:25.853Z,10.40
2022-08-05T03:49:51.241Z,11.02
2022-08-05T03:52:38.609Z,10.60
2022-08-05T03:55:53.226Z,11.20
2022-08-05T03:56:44.190Z,10.80
2022-08-05T03:58:48.670Z,11.52
2022-08-05T04:00:54.430Z,10.98
2022-08-05T04:02:59.270Z,11.43
2022-08-05T04:05:01.363Z,12.07
2022-08-05T04:07:03.362Z,11.45
2022-08-05T04:09:06.360Z,10.48
2022-08-05T04:11:08.691Z,11.00
2022-08-05T04:13:11.973Z,10.75
2022-08-05T04:15:15.383Z,10.25
2022-08-05T04:17:17.625Z,10.27
2022-08-05T04:19:21.106Z,9.88
2022-08-05T04:22:09.746Z,11.23
2022-08-05T04:23:58.388Z,11.07
2022-08-05T04:26:06.746Z,11.70
2022-08-05T04:28:11.410Z,11.57
2022-08-05T04:30:15.056Z,10.80
2022-08-05T04:32:20.155Z,10.55
2022-08-05T04:34:35.162Z,11.35
2022-08-05T04:36:46.183Z,11.75
2022-08-05T04:38:52.522Z,11.05
2022-08-05T04:40:54.140Z,11.35
2022-08-05T04:42:55.716Z,10.50
2022-08-05T04:44:57.528Z,10.63
2022-08-05T04:47:09.923Z,11.77
2022-08-05T04:49:14.483Z,12.38
2022-08-05T04:51:17.641Z,11.80
2022-08-05T04:53:19.843Z,11.02
2022-08-05T04:56:15.063Z,11.50
2022-08-05T04:57:47.591Z,11.70
2022-08-05T04:59:53.028Z,12.90
2022-08-05T05:02:35.418Z,12.95
2022-08-05T05:04:16.900Z,13.93
2022-08-05T05:06:39.760Z,13.57
2022-08-05T05:08:42.906Z,12.85
2022-08-05T05:10:55.870Z,11.93
2022-08-05T05:12:58.286Z,10.93
2022-08-05T05:15:00.116Z,11.35
2022-08-05T05:17:09.474Z,9.95
2022-08-05T05:19:19.292Z,10.55
2022-08-05T05:21:21.463Z,10.57
2022-08-05T05:24:02.372Z,9.77
2022-08-05T05:25:50.691Z,9.70
2022-08-05T05:27:55.865Z,9.30
2022-08-05T05:30:03.990Z,8.82
2022-08-05T05:32:06.939Z,9.05
2022-08-05T05:34:14.207Z,9.35
2022-08-05T05:36:17.632Z,9.15
2022-08-05T05:38:27.063Z,8.63
2022-08-05T05:40:30.198Z,7.95
2022-08-05T05:42:34.040Z,8.00
2022-08-05T05:44:42.893Z,7.90
2022-08-05T05:46:44.969Z,8.23
2022-08-05T05:48:49.594Z,7.28
2022-08-05T05:50:52.359Z,7.93
2022-08-05T05:52:55.156Z,8.57
2022-08-05T05:54:59.555Z,7.45
2022-08-05T05:57:01.235Z,7.53
2022-08-05T05:59:05.667Z,7.38
2022-08-05T06:01:13.250Z,7.32
2022-08-05T06:03:39.671Z,7.07
2022-08-05T06:05:38.744Z,7.57
2022-08-05T06:09:59.945Z,7.05
2022-08-05T06:12:02.796Z,7.15
2022-08-05T06:14:04.947Z,6.75
2022-08-05T06:18:31.138Z,6.35
2022-08-05T06:20:33.538Z,6.90
2022-08-05T06:22:37.306Z,6.45
2022-08-05T06:24:48.207Z,6.35
2022-08-05T06:26:52.201Z,6.38
2022-08-05T06:28:54.292Z,6.75
2022-08-05T06:30:55.894Z,6.38
2022-08-05T06:32:57.781Z,6.60
2022-08-05T06:37:01.085Z,6.88
2022-08-05T06:39:03.056Z,6.38
2022-08-05T06:41:05.540Z,6.65
2022-08-05T06:43:58.489Z,6.20
2022-08-05T06:46:02.972Z,7.05
2022-08-05T06:48:37.133Z,6.32
2022-08-05T06:50:17.375Z,6.07
2022-08-05T06:52:38.292Z,6.07
2022-08-05T06:54:41.343Z,5.43
2022-08-05T06:58:57.639Z,5.88
2022-08-05T07:01:00.249Z,5.60
2022-08-05T07:03:02.393Z,5.60
2022-08-05T07:05:18.686Z,5.72
2022-08-05T07:07:35.265Z,5.60
2022-08-05T07:09:43.345Z,6.10
2022-08-05T07:11:51.417Z,5.10
2022-08-05T07:14:20.749Z,5.03
2022-08-05T07:18:00.691Z,5.32
2022-08-05T07:19:11.929Z,5.18
2022-08-05T07:21:17.792Z,4.93
2022-08-05T07:23:29.727Z,5.47
2022-08-05T07:25:54.806Z,5.28
2022-08-05T07:28:04.244Z,6.43
2022-08-05T07:30:23.865Z,5.57
2022-08-05T07:32:27.488Z,4.95
2022-08-05T07:34:29.678Z,5.20
2022-08-05T07:38:43.280Z,5.15
2022-08-05T07:40:46.253Z,4.22
2022-08-05T07:45:03.206Z,4.20
2022-08-05T07:47:19.990Z,4.95
2022-08-05T07:49:27.416Z,4.10
2022-08-05T07:51:36.754Z,4.25
2022-08-05T07:53:50.362Z,4.22
2022-08-05T07:56:06.195Z,4.43
2022-08-05T07:58:54.970Z,4.47
2022-08-05T08:00:45.195Z,4.70
2022-08-05T08:03:13.789Z,4.80
2022-08-05T08:05:09.261Z,4.80
2022-08-05T08:07:13.648Z,4.90
2022-08-05T08:09:20.100Z,5.15
2022-08-05T08:11:27.569Z,5.00
2022-08-05T08:16:34.948Z,4.80
2022-08-05T08:18:23.374Z,5.00
2022-08-05T08:20:44.033Z,5.30
2022-08-05T08:22:55.839Z,5.30
2022-08-05T08:25:03.509Z,5.40
2022-08-05T08:27:07.048Z,5.20
2022-08-05T08:30:04.570Z,5.35
2022-08-05T08:31:33.015Z,5.97
2022-08-05T08:33:37.579Z,5.78
2022-08-05T08:35:41.453Z,5.85
2022-08-05T08:37:56.431Z,5.72
2022-08-05T08:39:58.161Z,5.35
2022-08-05T08:42:02.226Z,5.97
2022-08-05T08:45:17.684Z,5.90
2022-08-05T08:46:31.083Z,5.07
2022-08-05T08:49:02.895Z,5.15
2022-08-05T08:51:23.311Z,5.65
2022-08-05T08:53:18.459Z,5.13
2022-08-05T08:56:01.770Z,5.15
2022-08-05T08:57:57.949Z,5.50
2022-08-05T09:00:01.605Z,6.30
2022-08-05T09:02:17.731Z,5.70
2022-08-05T09:04:20.148Z,5.03
2022-08-05T09:06:24.322Z,5.50
2022-08-05T09:08:30.960Z,5.30
2022-08-05T09:10:32.784Z,5.50
2022-08-05T09:12:35.195Z,5.47
2022-08-05T09:14:58.676Z,5.05
2022-08-05T09:19:06.743Z,5.40
2022-08-05T09:21:11.765Z,5.65
2022-08-05T09:23:27.209Z,5.47
2022-08-05T09:26:02.122Z,5.50
2022-08-05T09:28:05.252Z,4.95
2022-08-05T09:30:08.418Z,5.20
2022-08-05T09:32:40.378Z,5.13
2022-08-05T09:35:08.223Z,5.05
2022-08-05T09:37:16.933Z,5.20
2022-08-05T09:39:22.351Z,5.80
2022-08-05T09:41:24.431Z,5.38
2022-08-05T09:43:28.032Z,4.93
2022-08-05T09:46:07.422Z,5.80
2022-08-05T09:48:21.011Z,5.18
2022-08-05T09:50:38.578Z,5.38
2022-08-05T09:52:48.303Z,5.45
2022-08-05T09:55:55.330Z,5.35
2022-08-05T09:57:30.664Z,5.43
2022-08-05T09:59:37.254Z,5.38
2022-08-05T10:01:45.491Z,5.10
2022-08-05T10:04:17.511Z,5.22
2022-08-05T10:06:20.776Z,5.32
2022-08-05T10:08:36.587Z,5.45
2022-08-05T10:10:48.174Z,5.07
2022-08-05T10:12:56.686Z,4.93
2022-08-05T10:15:20.464Z,4.85
2022-08-05T10:17:37.840Z,5.28
2022-08-05T10:20:03.533Z,4.68
2022-08-05T10:22:04.304Z,5.15
2022-08-05T10:24:11.121Z,5.20
2022-08-05T10:26:51.686Z,5.10
2022-08-05T10:28:36.638Z,5.43
2022-08-05T10:31:20.728Z,4.78
2022-08-05T10:33:03.854Z,4.90
2022-08-05T10:35:06.894Z,5.10
2022-08-05T10:37:11.233Z,5.30
2022-08-05T10:39:25.159Z,5.07
2022-08-05T10:42:02.454Z,4.85
2022-08-05T10:44:11.407Z,5.13
2022-08-05T10:46:14.808Z,6.15
2022-08-05T10:48:35.062Z,6.30
2022-08-05T10:51:00.598Z,5.15
2022-08-05T10:53:02.186Z,5.25
2022-08-05T10:55:05.439Z,5.10
2022-08-05T10:57:07.796Z,4.82
2022-08-05T11:00:03.194Z,5.07
2022-08-05T11:01:55.274Z,5.03
2022-08-05T11:04:17.507Z,5.25
2022-08-05T11:06:23.223Z,5.03
2022-08-05T11:08:38.052Z,4.93
2022-08-05T11:10:50.455Z,5.25
2022-08-05T11:13:03.007Z,4.75
2022-08-05T11:15:19.393Z,5.03
2022-08-05T11:17:59.229Z,5.40
2022-08-05T11:20:16.760Z,5.35
2022-08-05T11:22:30.720Z,5.30
2022-08-05T11:24:35.206Z,5.60
2022-08-05T11:26:43.149Z,5.15
2022-08-05T11:28:46.660Z,5.72
2022-08-05T11:31:06.197Z,5.70
2022-08-05T11:33:34.741Z,5.63
2022-08-05T11:36:07.615Z,4.90
2022-08-05T11:38:28.115Z,5.10
2022-08-05T11:40:56.359Z,5.40
2022-08-05T11:43:01.970Z,5.65
2022-08-05T11:45:05.935Z,5.40
2022-08-05T11:47:48.276Z,5.45
2022-08-05T11:49:50.965Z,5.57
2022-08-05T11:51:54.151Z,5.40
2022-08-05T11:56:01.903Z,5.57
2022-08-05T11:58:09.202Z,5.55
2022-08-05T12:00:27.562Z,5.43
2022-08-05T12:02:36.156Z,5.47
2022-08-05T12:04:43.527Z,5.55
2022-08-05T12:07:01.087Z,7.10
2022-08-05T12:09:04.527Z,5.82
2022-08-05T12:11:09.335Z,5.90
2022-08-05T12:15:43.412Z,6.03
2022-08-05T12:18:03.891Z,5.60
2022-08-05T12:20:27.311Z,5.47
2022-08-05T12:22:30.286Z,5.97
2022-08-05T12:24:33.946Z,5.50
2022-08-05T12:26:40.943Z,5.30
2022-08-05T12:28:46.339Z,6.30
2022-08-05T12:30:50.688Z,6.25
2022-08-05T12:32:56.410Z,5.97
2022-08-05T12:34:58.546Z,6.03
2022-08-05T12:37:17.475Z,6.50
2022-08-05T12:39:28.100Z,6.43
2022-08-05T12:41:43.836Z,6.47
2022-08-05T12:43:53.212Z,6.82
2022-08-05T12:45:55.820Z,6.88
2022-08-05T12:48:17.432Z,6.65
2022-08-05T12:50:19.681Z,6.63
2022-08-05T12:52:25.316Z,7.35
2022-08-05T12:54:32.416Z,6.53
2022-08-05T12:56:37.495Z,6.60
2022-08-05T12:58:52.270Z,7.13
2022-08-05T13:02:02.134Z,7.13
2022-08-05T13:03:19.960Z,7.20
2022-08-05T13:05:25.636Z,7.03
2022-08-05T13:07:59.767Z,7.57
2022-08-05T13:10:02.285Z,7.35
2022-08-05T13:12:08.632Z,6.90
2022-08-05T13:14:20.248Z,6.28
2022-08-05T13:16:27.793Z,7.78
2022-08-05T13:18:39.260Z,7.75
2022-08-05T13:20:42.133Z,6.70
2022-08-05T13:22:49.315Z,7.00
2022-08-05T13:24:57.906Z,7.38
2022-08-05T13:27:02.621Z,7.20
2022-08-05T13:29:05.059Z,7.25
2022-08-05T13:34:21.709Z,6.90
2022-08-05T13:35:46.974Z,7.00
2022-08-05T13:37:55.572Z,6.18
2022-08-05T13:40:13.591Z,6.90
2022-08-05T13:42:20.543Z,6.05
2022-08-05T13:44:22.781Z,6.25
2022-08-05T13:46:37.678Z,6.28
2022-08-05T13:48:58.458Z,6.30
2022-08-05T13:51:05.373Z,6.40
2022-08-05T13:53:08.990Z,6.50
2022-08-05T13:55:41.956Z,6.35
2022-08-05T13:57:51.463Z,6.23
2022-08-05T13:59:55.437Z,6.32
2022-08-05T14:02:00.721Z,6.45
2022-08-05T14:04:20.909Z,6.32
2022-08-05T14:06:26.212Z,6.28
2022-08-05T14:08:32.638Z,6.03
2022-08-05T14:10:35.457Z,6.45
2022-08-05T14:12:39.356Z,6.43
2022-08-05T14:14:45.169Z,6.43
2022-08-05T14:16:50.201Z,6.85
2022-08-05T14:18:57.075Z,6.85
2022-08-05T14:20:58.885Z,6.15
2022-08-05T14:23:01.903Z,6.05
2022-08-05T14:27:17.481Z,6.10
2022-08-05T14:29:20.240Z,6.57
2022-08-05T14:32:03.945Z,6.43
2022-08-05T14:34:00.262Z,6.50
2022-08-05T14:36:02.895Z,6.57
2022-08-05T14:38:04.574Z,6.25
2022-08-05T14:40:06.657Z,6.50
2022-08-05T14:42:21.237Z,6.07
2022-08-05T14:44:23.240Z,6.53
2022-08-05T14:46:28.969Z,6.10
2022-08-05T14:48:33.479Z,6.63
2022-08-05T14:50:39.675Z,6.30
2022-08-05T14:52:52.593Z,6.65
2022-08-05T14:54:56.927Z,6.60
2022-08-05T14:57:05.315Z,6.85
2022-08-05T14:59:12.768Z,6.50
2022-08-05T15:03:17.967Z,7.00
2022-08-05T15:05:20.515Z,6.82
2022-08-05T15:08:08.529Z,6.68
2022-08-05T15:09:51.462Z,7.25
2022-08-05T15:11:57.807Z,7.22
2022-08-05T15:13:59.386Z,7.47
2022-08-05T15:16:01.744Z,7.28
2022-08-05T15:18:05.718Z,6.93
2022-08-05T15:20:17.141Z,7.05
2022-08-05T15:22:21.071Z,6.93
2022-08-05T15:24:23.323Z,7.40
2022-08-05T15:26:31.921Z,6.63
2022-08-05T15:28:34.342Z,6.60
2022-08-05T15:30:36.927Z,6.85
2022-08-05T15:32:39.980Z,7.10
2022-08-05T15:34:42.085Z,7.30
2022-08-05T15:36:44.951Z,7.27
2022-08-05T15:38:46.951Z,6.88
2022-08-05T15:41:21.295Z,7.55
2022-08-05T15:43:19.720Z,7.57
2022-08-05T15:45:37.884Z,7.60
2022-08-05T15:47:40.860Z,7.90
2022-08-05T15:49:56.963Z,7.30
2022-08-05T15:52:04.066Z,7.00
2022-08-05T15:54:15.911Z,6.90
2022-08-05T15:56:18.163Z,7.00
2022-08-05T15:58:19.830Z,7.43
2022-08-05T16:00:26.025Z,7.10
2022-08-05T16:02:34.797Z,7.85
2022-08-05T16:04:36.637Z,7.13
2022-08-05T16:06:40.801Z,7.25
2022-08-05T16:08:42.583Z,7.22
2022-08-05T16:10:44.214Z,7.50
2022-08-05T16:12:48.996Z,7.43
2022-08-05T16:14:51.469Z,7.53
2022-08-05T16:16:55.480Z,6.97
2022-08-05T16:18:59.480Z,7.28
2022-08-05T16:21:04.173Z,7.80
2022-08-05T16:23:08.496Z,7.22
2022-08-05T16:25:10.843Z,8.23
2022-08-05T16:27:16.106Z,7.75
2022-08-05T16:29:19.987Z,7.30
2022-08-05T16:31:21.802Z,7.18
2022-08-05T16:33:23.661Z,7.65
2022-08-05T16:35:33.498Z,7.45
2022-08-05T16:38:03.609Z,7.45
2022-08-05T16:40:06.309Z,7.43
2022-08-05T16:42:15.302Z,7.78
2022-08-05T16:44:21.096Z,8.32
2022-08-05T16:46:28.792Z,7.88
2022-08-05T16:48:35.371Z,7.70
2022-08-05T16:50:37.719Z,8.38
2022-08-05T16:52:39.544Z,8.05
2022-08-05T16:54:47.764Z,8.05
2022-08-05T16:56:52.249Z,7.63
2022-08-05T16:58:54.324Z,7.45
2022-08-05T17:00:55.943Z,7.85
2022-08-05T17:02:57.598Z,6.97
2022-08-05T17:04:59.575Z,7.68
2022-08-05T17:07:03.539Z,7.57
2022-08-05T17:09:13.242Z,7.65
2022-08-05T17:11:17.022Z,7.45
2022-08-05T17:15:23.327Z,7.53
2022-08-05T17:17:42.586Z,7.68
2022-08-05T17:19:55.784Z,7.90
2022-08-05T17:21:58.557Z,7.00
2022-08-05T17:24:04.779Z,7.95
2022-08-05T17:26:10.384Z,7.10
2022-08-05T17:28:15.514Z,8.00
2022-08-05T17:30:18.087Z,8.27
2022-08-05T17:32:20.629Z,7.35
2022-08-05T17:34:29.845Z,7.47
2022-08-05T17:36:40.151Z,7.90
2022-08-05T17:38:42.413Z,7.80
2022-08-05T17:40:44.301Z,8.05
2022-08-05T17:42:50.944Z,7.80
2022-08-05T17:44:53.330Z,7.55
2022-08-05T17:46:54.930Z,8.20
2022-08-05T17:48:57.003Z,7.63
2022-08-05T17:50:59.620Z,7.97
2022-08-05T17:53:04.752Z,7.57
2022-08-05T17:55:07.939Z,8.10
2022-08-05T17:57:12.208Z,7.80
2022-08-05T17:59:14.199Z,7.90
2022-08-05T18:01:22.977Z,7.18
2022-08-05T18:03:55.870Z,7.53
2022-08-05T18:05:52.958Z,8.38
2022-08-05T18:07:56.824Z,8.05
2022-08-05T18:10:02.081Z,8.07
2022-08-05T18:12:12.164Z,8.27
2022-08-05T18:14:20.448Z,7.75
2022-08-05T18:16:22.440Z,8.20
2022-08-05T18:18:26.934Z,8.48
2022-08-05T18:20:31.922Z,7.68
2022-08-05T18:22:46.193Z,8.25
2022-08-05T18:24:55.683Z,8.20
2022-08-05T18:26:58.196Z,8.20
2022-08-05T18:28:59.896Z,8.05
2022-08-05T18:31:01.543Z,7.93
2022-08-05T18:33:03.437Z,9.03
2022-08-05T18:35:05.391Z,8.75
2022-08-05T18:37:12.618Z,8.75
2022-08-05T18:39:42.565Z,9.05
2022-08-05T18:41:55.146Z,8.80
2022-08-05T18:44:05.446Z,8.60
2022-08-05T18:46:09.702Z,8.70
2022-08-05T18:48:12.031Z,8.60
2022-08-05T18:50:51.125Z,9.02
2022-08-05T18:52:54.702Z,9.50
2022-08-05T18:54:56.303Z,9.93
2022-08-05T18:56:58.240Z,8.98
2022-08-05T18:59:02.713Z,8.88
2022-08-05T19:01:33.371Z,9.07
2022-08-05T19:03:55.359Z,9.27
2022-08-05T19:06:11.482Z,10.07
2022-08-05T19:08:21.329Z,9.25
2022-08-05T19:10:28.152Z,9.77
2022-08-05T19:12:33.529Z,8.98
2022-08-05T19:14:53.537Z,9.50
2022-08-05T19:16:57.075Z,9.55
2022-08-05T19:18:58.863Z,9.73
2022-08-05T19:21:00.576Z,8.75
2022-08-05T19:23:02.143Z,9.50
2022-08-05T19:25:10.315Z,9.50
2022-08-05T19:27:24.357Z,11.15
2022-08-05T19:29:36.029Z,10.23
2022-08-05T19:31:44.832Z,10.15
2022-08-05T19:33:56.622Z,10.00
2022-08-05T19:35:58.547Z,10.23
2022-08-05T19:38:06.037Z,10.32
2022-08-05T19:40:10.344Z,9.75
2022-08-05T19:42:13.486Z,10.50
2022-08-05T19:44:18.492Z,13.45
2022-08-05T19:46:29.197Z,10.65
2022-08-05T19:48:32.168Z,10.07
2022-08-05T19:50:36.799Z,10.43
2022-08-05T19:52:39.928Z,10.63
2022-08-05T19:54:41.895Z,11.25
2022-08-05T19:56:43.699Z,10.88
2022-08-05T19:58:54.012Z,12.95
2022-08-05T20:00:56.081Z,12.50
2022-08-05T20:02:58.708Z,11.57
2022-08-05T20:05:00.421Z,12.40
2022-08-05T20:07:02.411Z,12.13
2022-08-05T20:09:14.003Z,12.88
2022-08-05T20:11:18.051Z,12.32
2022-08-05T20:13:30.107Z,12.80
2022-08-05T20:15:52.034Z,13.05
2022-08-05T20:18:01.431Z,12.73
2022-08-05T20:20:09.540Z,12.93
2022-08-05T20:22:13.159Z,12.80
2022-08-05T20:24:14.816Z,12.80
2022-08-05T20:26:19.027Z,12.95
2022-08-05T20:28:20.922Z,12.80
2022-08-05T20:30:24.047Z,12.80
2022-08-05T20:32:28.312Z,12.55
2022-08-05T20:34:30.271Z,13.93
2022-08-05T20:36:32.735Z,13.38
2022-08-05T20:38:35.672Z,13.43
2022-08-05T20:40:38.019Z,13.18
2022-08-05T20:42:44.835Z,13.20
2022-08-05T20:44:46.662Z,13.63
2022-08-05T20:46:48.913Z,13.30
2022-08-05T20:48:51.096Z,13.77
2022-08-05T20:50:53.019Z,13.75
2022-08-05T20:52:55.123Z,12.85
2022-08-05T20:55:15.988Z,14.23
2022-08-05T20:57:24.509Z,12.40
2022-08-05T21:00:10.500Z,13.10
2022-08-05T21:02:02.115Z,12.60
2022-08-05T21:04:07.356Z,12.55
2022-08-05T21:06:27.909Z,11.85
2022-08-05T21:08:42.245Z,11.60
2022-08-05T21:10:48.962Z,12.23
2022-08-05T21:12:55.522Z,11.82
2022-08-05T21:15:10.005Z,11.45
2022-08-05T21:17:12.220Z,11.63
2022-08-05T21:19:14.208Z,12.73
2022-08-05T21:21:15.761Z,11.98
2022-08-05T21:23:17.804Z,11.77
2022-08-05T21:25:19.631Z,12.55
2022-08-05T21:27:25.338Z,11.10
2022-08-05T21:29:31.785Z,12.85
2022-08-05T21:31:41.251Z,12.40
2022-08-05T21:33:43.484Z,11.77
2022-08-05T21:35:58.179Z,12.00
2022-08-05T21:38:02.182Z,12.20
2022-08-05T21:42:05.299Z,12.95
2022-08-05T21:44:07.051Z,12.13
2022-08-05T21:46:08.966Z,12.35
2022-08-05T21:48:13.634Z,12.95
2022-08-05T21:50:15.730Z,12.60
2022-08-05T21:52:26.765Z,13.43
2022-08-05T21:54:31.115Z,12.75
2022-08-05T21:56:33.061Z,12.68
2022-08-05T21:58:35.027Z,12.98
2022-08-05T22:00:38.530Z,12.60
2022-08-05T22:02:42.680Z,12.68
2022-08-05T22:04:44.670Z,12.98
2022-08-05T22:06:50.326Z,13.13
2022-08-05T22:08:52.734Z,13.65
2022-08-05T22:10:54.535Z,13.30
2022-08-05T22:12:57.623Z,13.60
2022-08-05T22:15:02.198Z,14.45
2022-08-05T22:17:06.878Z,14.18
2022-08-05T22:19:24.834Z,15.73
2022-08-05T22:21:30.423Z,15.63
2022-08-05T22:24:02.953Z,15.03
2022-08-05T22:26:29.254Z,15.40
2022-08-05T22:28:31.765Z,13.02
2022-08-05T22:30:36.013Z,13.65
2022-08-05T22:32:37.786Z,13.82
2022-08-05T22:34:43.069Z,13.90
2022-08-05T22:36:44.595Z,13.43
2022-08-05T22:38:50.036Z,13.73
2022-08-05T22:40:55.242Z,14.55
2022-08-05T22:42:58.202Z,13.82
2022-08-05T22:45:00.015Z,14.02
2022-08-05T22:47:05.732Z,13.75
2022-08-05T22:49:23.140Z,14.27
2022-08-05T22:52:06.644Z,13.63
2022-08-05T22:53:55.083Z,13.48
2022-08-05T22:55:59.268Z,14.18
2022-08-05T22:58:01.250Z,14.20
2022-08-05T23:02:07.750Z,13.55
2022-08-05T23:04:09.700Z,14.40
2022-08-05T23:06:12.172Z,13.77
2022-08-05T23:08:14.869Z,13.57
2022-08-05T23:10:20.131Z,13.82
2022-08-05T23:12:24.429Z,14.82
2022-08-05T23:14:32.211Z,14.60
2022-08-05T23:16:52.849Z,14.25
2022-08-05T23:18:54.848Z,14.35
2022-08-05T23:20:57.180Z,14.55
2022-08-05T23:25:01.657Z,14.65
2022-08-05T23:27:03.720Z,14.15
2022-08-05T23:29:05.236Z,14.27
2022-08-05T23:31:17.129Z,15.03
2022-08-05T23:33:25.788Z,13.50
2022-08-05T23:35:40.805Z,14.05
2022-08-05T23:37:42.599Z,15.02
2022-08-05T23:39:54.577Z,14.32
2022-08-05T23:41:56.659Z,14.48
2022-08-05T23:44:05.188Z,14.43
2022-08-05T23:46:21.149Z,14.00
2022-08-05T23:48:23.172Z,13.95
2022-08-05T23:50:28.313Z,14.27
2022-08-05T23:52:36.127Z,14.60
2022-08-05T23:54:51.270Z,14.10
2022-08-05T23:56:58.251Z,14.23
2022-08-05T23:59:05.797Z,14.27
